Time;durP1;ratioP1;P1;durP2;ratioP2;P2;SDS_P1;SDS_P2;PMS_P1;PMS_P2;Temp;Humidity;BMP_temperature;BMP_pressure;BME280_temperature;BME280_humidity;BME280_pressure;Samples;Min_cycle;Max_cycle;Signal;HPM_P1;HPM_P2
2024/03/20 00:01:46;0.00;0.00;0.62;0.00;0.00;0.62;4.30;3.90;;;23.80;23.40;;;;;;2258676;61;20353;-64
2024/03/20 00:04:12;0.00;0.00;0.62;0.00;0.00;0.62;5.33;4.30;;;23.80;23.40;;;;;;2262874;61;20804;-64
2024/03/20 00:06:38;0.00;0.00;0.62;0.00;0.00;0.62;4.23;3.73;;;23.80;23.40;;;;;;2263268;61;20496;-64
2024/03/20 00:09:04;0.00;0.00;0.62;0.00;0.00;0.62;4.67;4.07;;;23.80;23.40;;;;;;2262924;61;20469;-64
2024/03/20 00:11:31;0.00;0.00;0.62;0.00;0.00;0.62;4.80;4.30;;;23.70;23.40;;;;;;2258972;61;20352;-64
2024/03/20 00:13:58;0.00;0.00;0.62;0.00;0.00;0.62;4.60;3.97;;;23.70;23.90;;;;;;2262978;61;20427;-64
2024/03/20 00:16:24;0.00;0.00;0.62;0.00;0.00;0.62;4.03;3.63;;;23.70;23.30;;;;;;2263184;61;20381;-64
2024/03/20 00:18:50;0.00;0.00;0.62;0.00;0.00;0.62;4.50;3.80;;;23.70;23.30;;;;;;2259044;61;20349;-64
2024/03/20 00:21:16;0.00;0.00;0.62;0.00;0.00;0.62;4.63;4.23;;;23.70;23.30;;;;;;2262709;61;20861;-64
2024/03/20 00:23:43;0.00;0.00;0.62;0.00;0.00;0.62;4.80;3.83;;;23.70;23.30;;;;;;2262879;61;20361;-64
2024/03/20 00:26:09;0.00;0.00;0.62;0.00;0.00;0.62;5.57;4.10;;;23.70;23.30;;;;;;2262818;61;20398;-64
2024/03/20 00:28:35;0.00;0.00;0.62;0.00;0.00;0.62;3.90;3.50;;;23.70;23.30;;;;;;2262970;61;20349;-64
2024/03/20 00:31:03;0.00;0.00;0.62;0.00;0.00;0.62;5.80;4.20;;;23.70;23.30;;;;;;2262982;61;20388;-64
2024/03/20 00:33:29;0.00;0.00;0.62;0.00;0.00;0.62;4.90;4.30;;;23.70;23.30;;;;;;2262957;61;20466;-64
2024/03/20 00:35:56;0.00;0.00;0.62;0.00;0.00;0.62;4.40;3.90;;;23.70;23.30;;;;;;2261667;61;20406;-64
2024/03/20 00:38:22;0.00;0.00;0.62;0.00;0.00;0.62;5.03;4.43;;;23.70;23.30;;;;;;2262959;61;20349;-64
2024/03/20 00:40:48;0.00;0.00;0.62;0.00;0.00;0.62;4.90;4.40;;;23.70;23.30;;;;;;2262687;61;20460;-64
2024/03/20 00:43:14;0.00;0.00;0.62;0.00;0.00;0.62;4.30;3.53;;;23.70;23.30;;;;;;2262524;61;20360;-64
2024/03/20 00:45:40;0.00;0.00;0.62;0.00;0.00;0.62;6.00;4.10;;;23.70;23.30;;;;;;2263136;61;20461;-64
2024/03/20 00:48:08;0.00;0.00;0.62;0.00;0.00;0.62;4.40;4.00;;;23.70;23.30;;;;;;2262840;61;21050;-64
2024/03/20 00:50:34;0.00;0.00;0.62;0.00;0.00;0.62;4.63;3.70;;;23.70;23.30;;;;;;2261372;61;20364;-64
2024/03/20 00:53:01;0.00;0.00;0.62;0.00;0.00;0.62;6.70;4.50;;;23.70;23.30;;;;;;2262469;61;20878;-65
2024/03/20 00:55:27;0.00;0.00;0.62;0.00;0.00;0.62;4.37;3.97;;;23.70;23.30;;;;;;2262201;61;20841;-65
2024/03/20 00:57:53;0.00;0.00;0.62;0.00;0.00;0.62;4.97;3.90;;;23.70;23.30;;;;;;2262304;61;20349;-64
2024/03/20 01:00:19;0.00;0.00;0.62;0.00;0.00;0.62;4.33;3.93;;;23.70;23.30;;;;;;2262625;61;20427;-64
2024/03/20 01:02:46;0.00;0.00;0.62;0.00;0.00;0.62;5.13;4.00;;;23.70;23.30;;;;;;2262528;61;20357;-64
2024/03/20 01:05:13;0.00;0.00;0.62;0.00;0.00;0.62;5.17;4.17;;;23.70;23.30;;;;;;2262661;61;20406;-65
2024/03/20 01:07:40;0.00;0.00;0.62;0.00;0.00;0.62;4.70;4.07;;;23.70;23.30;;;;;;2262363;61;20360;-64
2024/03/20 01:10:08;0.00;0.00;0.62;0.00;0.00;0.62;4.60;3.87;;;23.70;23.30;;;;;;2262860;61;20390;-64
2024/03/20 01:12:35;0.00;0.00;0.62;0.00;0.00;0.62;4.50;3.80;;;23.70;23.30;;;;;;2262671;61;20437;-64
2024/03/20 01:15:01;0.00;0.00;0.62;0.00;0.00;0.62;4.30;3.10;;;23.70;23.40;;;;;;2262910;61;20882;-63
2024/03/20 01:17:29;0.00;0.00;0.62;0.00;0.00;0.62;3.77;3.33;;;23.70;23.30;;;;;;2262754;61;20478;-63
2024/03/20 01:19:55;0.00;0.00;0.62;0.00;0.00;0.62;6.97;4.00;;;23.70;23.30;;;;;;2262645;61;20376;-63
2024/03/20 01:22:23;0.00;0.00;0.62;0.00;0.00;0.62;4.03;3.63;;;23.70;23.30;;;;;;2262578;61;20376;-63
2024/03/20 01:24:49;0.00;0.00;0.62;0.00;0.00;0.62;4.53;3.63;;;23.70;23.30;;;;;;2262774;61;20389;-63
2024/03/20 01:27:15;0.00;0.00;0.62;0.00;0.00;0.62;6.43;3.90;;;23.70;23.30;;;;;;2262730;61;20419;-63
2024/03/20 01:29:41;0.00;0.00;0.62;0.00;0.00;0.62;5.20;4.03;;;23.70;23.30;;;;;;2262910;61;20341;-63
2024/03/20 01:32:07;0.00;0.00;0.62;0.00;0.00;0.62;4.03;3.43;;;23.70;23.30;;;;;;2262638;61;20360;-63
2024/03/20 01:34:33;0.00;0.00;0.62;0.00;0.00;0.62;4.33;3.93;;;23.70;23.40;;;;;;2262681;61;20357;-63
2024/03/20 01:37:00;0.00;0.00;0.62;0.00;0.00;0.62;4.77;3.50;;;23.70;23.30;;;;;;2262615;61;20370;-63
2024/03/20 01:39:27;0.00;0.00;0.62;0.00;0.00;0.62;4.80;4.07;;;23.70;23.40;;;;;;2262632;61;20406;-63
2024/03/20 01:41:53;0.00;0.00;0.62;0.00;0.00;0.62;4.27;3.60;;;23.70;23.30;;;;;;2262630;61;20365;-63
2024/03/20 01:44:20;0.00;0.00;0.62;0.00;0.00;0.62;6.03;3.80;;;23.70;23.40;;;;;;2262658;61;20356;-63
2024/03/20 01:46:46;0.00;0.00;0.62;0.00;0.00;0.62;7.33;3.27;;;23.70;23.30;;;;;;2262349;61;20377;-63
2024/03/20 01:49:12;0.00;0.00;0.62;0.00;0.00;0.62;3.93;3.47;;;23.70;23.30;;;;;;2262599;61;20349;-63
2024/03/20 01:51:40;0.00;0.00;0.62;0.00;0.00;0.62;3.60;3.20;;;23.70;23.30;;;;;;2262532;61;20399;-63
2024/03/20 01:54:08;0.00;0.00;0.62;0.00;0.00;0.62;4.53;3.60;;;23.70;23.40;;;;;;2262835;61;20365;-63
2024/03/20 01:56:36;0.00;0.00;0.62;0.00;0.00;0.62;3.50;3.20;;;23.70;23.30;;;;;;2263250;61;20518;-63
2024/03/20 01:59:02;0.00;0.00;0.62;0.00;0.00;0.62;3.90;3.40;;;23.70;23.40;;;;;;2258753;61;20387;-63
2024/03/20 02:01:28;0.00;0.00;0.62;0.00;0.00;0.62;4.03;3.63;;;23.70;23.30;;;;;;2258855;61;20377;-63
2024/03/20 02:03:56;0.00;0.00;0.62;0.00;0.00;0.62;4.90;3.63;;;23.70;23.40;;;;;;2257285;61;20358;-63
2024/03/20 02:06:25;0.00;0.00;0.62;0.00;0.00;0.62;4.63;3.60;;;23.70;23.40;;;;;;2259130;61;20435;-62
2024/03/20 02:08:53;0.00;0.00;0.62;0.00;0.00;0.62;4.20;3.77;;;23.70;23.40;;;;;;2259589;61;20361;-63
2024/03/20 02:11:20;0.00;0.00;0.62;0.00;0.00;0.62;6.40;3.90;;;23.70;23.40;;;;;;2259429;61;20504;-63
2024/03/20 02:13:53;0.00;0.00;0.62;0.00;0.00;0.62;4.23;3.60;;;23.70;23.40;;;;;;2258764;61;20369;-63
2024/03/20 02:16:20;0.00;0.00;0.62;0.00;0.00;0.62;3.73;3.00;;;23.70;23.40;;;;;;2262792;61;20373;-63
2024/03/20 02:18:48;0.00;0.00;0.62;0.00;0.00;0.62;6.23;3.60;;;23.70;23.40;;;;;;2262651;61;20874;-63
2024/03/20 02:21:17;0.00;0.00;0.62;0.00;0.00;0.62;6.07;3.90;;;23.70;23.40;;;;;;2263058;61;20409;-63
2024/03/20 02:23:43;0.00;0.00;0.62;0.00;0.00;0.62;5.03;3.73;;;23.70;23.30;;;;;;2263371;61;20414;-63
2024/03/20 02:26:10;0.00;0.00;0.62;0.00;0.00;0.62;5.30;3.93;;;23.70;23.30;;;;;;2262949;61;20409;-63
2024/03/20 02:28:38;0.00;0.00;0.62;0.00;0.00;0.62;6.50;4.50;;;23.70;23.30;;;;;;2263182;61;20356;-63
2024/03/20 02:31:05;0.00;0.00;0.62;0.00;0.00;0.62;5.13;3.97;;;23.70;23.30;;;;;;2259352;61;20363;-64
2024/03/20 02:33:31;0.00;0.00;0.62;0.00;0.00;0.62;5.47;3.67;;;23.70;23.30;;;;;;2263055;61;20406;-63
2024/03/20 02:35:57;0.00;0.00;0.62;0.00;0.00;0.62;4.17;3.77;;;23.70;23.30;;;;;;2263229;61;20376;-63
2024/03/20 02:38:29;0.00;0.00;0.62;0.00;0.00;0.62;4.50;3.73;;;23.80;23.40;;;;;;2263220;61;20353;-63
2024/03/20 02:40:56;0.00;0.00;0.62;0.00;0.00;0.62;5.70;3.80;;;23.80;23.30;;;;;;2262946;61;20365;-63
2024/03/20 02:43:22;0.00;0.00;0.62;0.00;0.00;0.62;4.40;3.80;;;23.80;23.30;;;;;;2256124;61;20819;-63
2024/03/20 02:45:49;0.00;0.00;0.62;0.00;0.00;0.62;5.20;3.47;;;23.80;23.30;;;;;;2263016;61;20368;-63
2024/03/20 02:48:15;0.00;0.00;0.62;0.00;0.00;0.62;4.47;3.70;;;23.80;23.30;;;;;;2259436;61;20356;-63
2024/03/20 02:50:42;0.00;0.00;0.62;0.00;0.00;0.62;4.87;4.10;;;23.80;23.30;;;;;;2262882;61;20412;-63
2024/03/20 02:53:08;0.00;0.00;0.62;0.00;0.00;0.62;5.20;3.70;;;23.70;23.20;;;;;;2263257;61;20431;-63
2024/03/20 02:55:39;0.00;0.00;0.62;0.00;0.00;0.62;4.73;3.63;;;23.80;23.30;;;;;;2263011;61;20898;-63
2024/03/20 02:58:05;0.00;0.00;0.62;0.00;0.00;0.62;4.00;3.30;;;23.80;23.30;;;;;;2262974;61;20887;-63
2024/03/20 03:00:32;0.00;0.00;0.62;0.00;0.00;0.62;5.23;3.90;;;23.80;23.30;;;;;;2262968;61;20389;-63
2024/03/20 03:02:59;0.00;0.00;0.62;0.00;0.00;0.62;4.63;3.40;;;23.80;23.30;;;;;;2262856;61;20360;-63
2024/03/20 03:05:27;0.00;0.00;0.62;0.00;0.00;0.62;4.70;3.80;;;23.80;23.20;;;;;;2263068;61;20587;-63
2024/03/20 03:07:53;0.00;0.00;0.62;0.00;0.00;0.62;4.93;3.40;;;23.80;23.30;;;;;;2262742;61;20353;-63
2024/03/20 03:10:21;0.00;0.00;0.62;0.00;0.00;0.62;4.97;3.40;;;23.80;23.30;;;;;;2263077;61;21159;-63
2024/03/20 03:12:50;0.00;0.00;0.62;0.00;0.00;0.62;4.83;3.40;;;23.80;23.30;;;;;;2263294;61;20353;-63
2024/03/20 03:15:17;0.00;0.00;0.62;0.00;0.00;0.62;3.90;3.33;;;23.80;23.20;;;;;;2259223;61;20382;-63
2024/03/20 03:17:44;0.00;0.00;0.62;0.00;0.00;0.62;4.47;3.40;;;23.80;23.20;;;;;;2263057;61;20444;-63
2024/03/20 03:20:14;0.00;0.00;0.62;0.00;0.00;0.62;4.70;3.60;;;23.80;23.20;;;;;;2262954;61;20370;-63
2024/03/20 03:22:43;0.00;0.00;0.62;0.00;0.00;0.62;3.90;3.23;;;23.80;23.30;;;;;;2262905;61;20422;-63
2024/03/20 03:25:10;0.00;0.00;0.62;0.00;0.00;0.62;7.17;3.57;;;23.80;23.20;;;;;;2259322;61;20890;-63
2024/03/20 03:27:40;0.00;0.00;0.62;0.00;0.00;0.62;3.93;3.53;;;23.80;23.30;;;;;;2263304;61;20790;-63
2024/03/20 03:30:09;0.00;0.00;0.62;0.00;0.00;0.62;4.50;3.17;;;23.80;23.30;;;;;;2263064;61;20349;-63
2024/03/20 03:32:35;0.00;0.00;0.62;0.00;0.00;0.62;6.97;3.90;;;23.80;23.20;;;;;;2262993;61;20750;-63
2024/03/20 03:35:02;0.00;0.00;0.62;0.00;0.00;0.62;4.90;3.53;;;23.80;23.30;;;;;;2263025;61;20352;-63
2024/03/20 03:37:28;0.00;0.00;0.62;0.00;0.00;0.62;5.27;3.30;;;23.80;23.30;;;;;;2262996;61;20438;-63
2024/03/20 03:39:54;0.00;0.00;0.62;0.00;0.00;0.62;4.37;3.53;;;23.80;23.20;;;;;;2263017;61;20785;-63
2024/03/20 03:42:20;0.00;0.00;0.62;0.00;0.00;0.62;4.37;3.60;;;23.80;23.80;;;;;;2263027;61;20976;-63
2024/03/20 03:44:47;0.00;0.00;0.62;0.00;0.00;0.62;3.90;3.40;;;23.80;23.30;;;;;;2263006;61;20360;-63
2024/03/20 03:47:14;0.00;0.00;0.62;0.00;0.00;0.62;4.27;3.37;;;23.80;23.30;;;;;;2262852;61;20392;-63
2024/03/20 03:49:40;0.00;0.00;0.62;0.00;0.00;0.62;4.33;3.20;;;23.70;23.20;;;;;;2263191;61;20357;-63
2024/03/20 03:52:07;0.00;0.00;0.62;0.00;0.00;0.62;4.10;3.70;;;23.70;23.20;;;;;;2263030;61;20887;-63
2024/03/20 03:54:33;0.00;0.00;0.62;0.00;0.00;0.62;4.27;3.00;;;23.70;23.20;;;;;;2262999;61;20356;-63
2024/03/20 03:57:00;0.00;0.00;0.62;0.00;0.00;0.62;4.17;3.63;;;23.70;23.20;;;;;;2262877;61;20902;-63
2024/03/20 03:59:26;0.00;0.00;0.62;0.00;0.00;0.62;4.00;3.53;;;23.70;23.20;;;;;;2262822;61;20942;-63
2024/03/20 04:01:53;0.00;0.00;0.62;0.00;0.00;0.62;3.50;3.20;;;23.70;23.20;;;;;;2261991;61;20570;-63
2024/03/20 04:04:20;0.00;0.00;0.62;0.00;0.00;0.62;4.67;3.60;;;23.70;23.20;;;;;;2262855;61;20799;-63
2024/03/20 04:06:46;0.00;0.00;0.62;0.00;0.00;0.62;3.50;3.20;;;23.70;23.20;;;;;;2263274;61;20471;-63
2024/03/20 04:09:13;0.00;0.00;0.62;0.00;0.00;0.62;3.87;3.23;;;23.70;23.80;;;;;;2262733;61;20844;-63
2024/03/20 04:11:39;0.00;0.00;0.62;0.00;0.00;0.62;4.00;2.93;;;23.70;23.20;;;;;;2263072;61;20353;-63
2024/03/20 04:14:07;0.00;0.00;0.62;0.00;0.00;0.62;4.77;3.20;;;23.70;23.30;;;;;;2259029;61;20377;-64
2024/03/20 04:16:34;0.00;0.00;0.62;0.00;0.00;0.62;3.30;2.93;;;23.70;23.30;;;;;;2262574;61;20456;-62
2024/03/20 04:19:00;0.00;0.00;0.62;0.00;0.00;0.62;3.67;3.37;;;23.70;23.30;;;;;;2263056;61;20353;-63
2024/03/20 04:21:28;0.00;0.00;0.62;0.00;0.00;0.62;4.63;3.70;;;23.70;23.30;;;;;;2262922;61;20392;-63
2024/03/20 04:23:54;0.00;0.00;0.62;0.00;0.00;0.62;4.30;3.30;;;23.70;23.30;;;;;;2262841;61;20364;-62
2024/03/20 04:26:20;0.00;0.00;0.62;0.00;0.00;0.62;3.87;3.47;;;23.70;23.80;;;;;;2263180;61;20380;-63
2024/03/20 04:28:46;0.00;0.00;0.62;0.00;0.00;0.62;4.27;3.27;;;23.70;23.30;;;;;;2263082;61;20372;-63
2024/03/20 04:31:14;0.00;0.00;0.62;0.00;0.00;0.62;5.03;4.17;;;23.70;23.30;;;;;;2262203;61;20875;-63
2024/03/20 04:33:41;0.00;0.00;0.62;0.00;0.00;0.62;3.43;3.00;;;23.70;23.30;;;;;;2263082;61;20353;-62
2024/03/20 04:36:08;0.00;0.00;0.62;0.00;0.00;0.62;4.23;3.73;;;23.70;23.30;;;;;;2263082;61;20369;-63
2024/03/20 04:38:37;0.00;0.00;0.62;0.00;0.00;0.62;4.90;3.30;;;23.60;23.30;;;;;;2262736;61;20349;-63
2024/03/20 04:41:04;0.00;0.00;0.62;0.00;0.00;0.62;6.83;3.27;;;23.70;23.30;;;;;;2262940;61;20770;-63
2024/03/20 04:43:30;0.00;0.00;0.62;0.00;0.00;0.62;5.27;3.60;;;23.70;23.30;;;;;;2262796;61;20436;-63
2024/03/20 04:45:56;0.00;0.00;0.62;0.00;0.00;0.62;3.87;2.93;;;23.70;23.30;;;;;;2262610;61;20375;-63
2024/03/20 04:48:23;0.00;0.00;0.62;0.00;0.00;0.62;4.50;3.50;;;23.60;23.30;;;;;;2262926;61;20385;-65
2024/03/20 04:50:49;0.00;0.00;0.62;0.00;0.00;0.62;3.73;3.27;;;23.60;23.30;;;;;;2262973;61;20345;-65
2024/03/20 04:53:15;0.00;0.00;0.62;0.00;0.00;0.62;4.00;2.93;;;23.60;23.30;;;;;;2262832;61;20390;-63
2024/03/20 04:55:43;0.00;0.00;0.62;0.00;0.00;0.62;4.10;2.97;;;23.60;23.30;;;;;;2258998;61;20422;-63
2024/03/20 04:58:09;0.00;0.00;0.62;0.00;0.00;0.62;4.00;3.60;;;23.60;23.30;;;;;;2258817;61;20353;-63
2024/03/20 05:00:35;0.00;0.00;0.62;0.00;0.00;0.62;6.70;3.23;;;23.60;23.30;;;;;;2262371;61;20392;-63
2024/03/20 05:03:02;0.00;0.00;0.62;0.00;0.00;0.62;4.27;3.00;;;23.60;23.30;;;;;;2262718;61;20353;-63
2024/03/20 05:05:28;0.00;0.00;0.62;0.00;0.00;0.62;3.90;3.20;;;23.60;23.80;;;;;;2262564;61;20361;-63
2024/03/20 05:07:54;0.00;0.00;0.62;0.00;0.00;0.62;5.63;3.17;;;23.60;23.30;;;;;;2262658;61;20859;-63
2024/03/20 05:10:20;0.00;0.00;0.62;0.00;0.00;0.62;4.17;3.40;;;23.60;23.30;;;;;;2262916;61;20349;-63
2024/03/20 05:12:48;0.00;0.00;0.62;0.00;0.00;0.62;4.43;3.70;;;23.60;23.30;;;;;;2262678;61;20406;-63
2024/03/20 05:15:14;0.00;0.00;0.62;0.00;0.00;0.62;4.40;3.37;;;23.60;23.30;;;;;;2258735;61;20373;-63
2024/03/20 05:17:41;0.00;0.00;0.62;0.00;0.00;0.62;4.37;3.30;;;23.60;23.30;;;;;;2262593;61;20392;-63
2024/03/20 05:20:09;0.00;0.00;0.62;0.00;0.00;0.62;4.23;3.40;;;23.60;23.30;;;;;;2262810;61;20764;-63
2024/03/20 05:22:36;0.00;0.00;0.62;0.00;0.00;0.62;5.00;3.60;;;23.60;23.30;;;;;;2262413;61;20754;-63
2024/03/20 05:25:02;0.00;0.00;0.62;0.00;0.00;0.62;4.00;3.43;;;23.60;23.30;;;;;;2262871;61;20345;-62
2024/03/20 05:27:28;0.00;0.00;0.62;0.00;0.00;0.62;3.30;2.87;;;23.60;23.30;;;;;;2262763;61;20706;-63
2024/03/20 05:29:56;0.00;0.00;0.62;0.00;0.00;0.62;5.83;3.37;;;23.60;23.30;;;;;;2262920;61;20363;-63
2024/03/20 05:32:22;0.00;0.00;0.62;0.00;0.00;0.62;4.93;3.70;;;23.60;23.30;;;;;;2263434;61;20364;-62
2024/03/20 05:34:48;0.00;0.00;0.62;0.00;0.00;0.62;3.30;3.00;;;23.60;23.30;;;;;;2263375;61;20902;-63
2024/03/20 05:37:15;0.00;0.00;0.62;0.00;0.00;0.62;3.33;3.03;;;23.60;23.30;;;;;;2263403;61;20755;-63
2024/03/20 05:39:41;0.00;0.00;0.62;0.00;0.00;0.62;5.13;3.13;;;23.60;23.30;;;;;;2263299;61;20359;-63
2024/03/20 05:42:08;0.00;0.00;0.62;0.00;0.00;0.62;3.30;2.80;;;23.60;23.30;;;;;;2263374;61;20357;-63
2024/03/20 05:44:34;0.00;0.00;0.62;0.00;0.00;0.62;5.13;3.37;;;23.60;23.30;;;;;;2263492;61;20357;-63
2024/03/20 05:47:02;0.00;0.00;0.62;0.00;0.00;0.62;3.57;3.20;;;23.60;23.30;;;;;;2263231;61;20426;-62
2024/03/20 05:49:28;0.00;0.00;0.62;0.00;0.00;0.62;3.77;3.20;;;23.60;23.30;;;;;;2263282;61;20407;-63
2024/03/20 05:51:54;0.00;0.00;0.62;0.00;0.00;0.62;3.40;3.07;;;23.60;23.30;;;;;;2263345;61;20436;-63
2024/03/20 05:54:20;0.00;0.00;0.62;0.00;0.00;0.62;3.77;3.13;;;23.60;23.30;;;;;;2263307;61;20895;-61
2024/03/20 05:56:47;0.00;0.00;0.62;0.00;0.00;0.62;5.17;3.57;;;23.60;23.30;;;;;;2263356;61;20379;-63
2024/03/20 05:59:13;0.00;0.00;0.62;0.00;0.00;0.62;4.90;3.93;;;23.60;23.30;;;;;;2259598;61;20353;-63
2024/03/20 06:01:39;0.00;0.00;0.62;0.00;0.00;0.62;5.50;4.13;;;23.60;23.80;;;;;;2262696;61;20381;-63
2024/03/20 06:04:06;0.00;0.00;0.62;0.00;0.00;0.62;5.20;4.17;;;23.60;23.30;;;;;;2263475;61;20365;-65
2024/03/20 06:06:33;0.00;0.00;0.62;0.00;0.00;0.62;4.93;3.70;;;23.60;23.30;;;;;;2263463;61;20902;-63
2024/03/20 06:08:59;0.00;0.00;0.62;0.00;0.00;0.62;4.17;3.50;;;23.60;23.30;;;;;;2263201;61;20357;-63
2024/03/20 06:11:25;0.00;0.00;0.62;0.00;0.00;0.62;6.37;3.87;;;23.60;23.30;;;;;;2263451;61;20837;-65
2024/03/20 06:13:53;0.00;0.00;0.62;0.00;0.00;0.62;4.77;4.10;;;23.60;23.30;;;;;;2263442;61;20364;-64
2024/03/20 06:16:19;0.00;0.00;0.62;0.00;0.00;0.62;5.03;3.50;;;23.60;23.30;;;;;;2263082;61;20376;-65
2024/03/20 06:18:46;0.00;0.00;0.62;0.00;0.00;0.62;5.10;3.90;;;23.60;23.30;;;;;;2263237;61;20349;-63
2024/03/20 06:21:13;0.00;0.00;0.62;0.00;0.00;0.62;4.60;4.10;;;23.60;23.30;;;;;;2263038;61;20381;-63
2024/03/20 06:23:39;0.00;0.00;0.62;0.00;0.00;0.62;5.37;4.10;;;23.60;23.30;;;;;;2263182;61;20353;-62
2024/03/20 06:26:05;0.00;0.00;0.62;0.00;0.00;0.62;5.90;4.70;;;23.60;23.30;;;;;;2263432;61;20800;-63
2024/03/20 06:28:31;0.00;0.00;0.62;0.00;0.00;0.62;4.83;4.10;;;23.60;23.30;;;;;;2263219;61;20388;-63
2024/03/20 06:30:58;0.00;0.00;0.62;0.00;0.00;0.62;4.77;4.13;;;23.60;23.30;;;;;;2262987;61;20683;-65
2024/03/20 06:33:24;0.00;0.00;0.62;0.00;0.00;0.62;5.57;5.00;;;23.60;23.30;;;;;;2263330;61;20429;-64
2024/03/20 06:35:51;0.00;0.00;0.62;0.00;0.00;0.62;3.93;3.53;;;23.50;23.30;;;;;;2263141;61;20381;-65
2024/03/20 06:38:19;0.00;0.00;0.62;0.00;0.00;0.62;4.93;4.30;;;23.60;23.30;;;;;;2262943;61;20361;-63
2024/03/20 06:40:45;0.00;0.00;0.62;0.00;0.00;0.62;4.73;4.20;;;23.60;23.30;;;;;;2262908;61;20381;-64
2024/03/20 06:43:12;0.00;0.00;0.62;0.00;0.00;0.62;7.53;5.17;;;23.50;23.30;;;;;;2263198;61;20353;-65
2024/03/20 06:45:41;0.00;0.00;0.62;0.00;0.00;0.62;6.30;4.83;;;23.60;23.30;;;;;;2262938;61;20380;-65
2024/03/20 06:48:08;0.00;0.00;0.62;0.00;0.00;0.62;5.37;4.87;;;23.60;23.30;;;;;;2263330;61;20356;-63
2024/03/20 06:50:35;0.00;0.00;0.62;0.00;0.00;0.62;6.00;4.87;;;23.60;23.30;;;;;;2263150;61;20345;-64
2024/03/20 06:53:04;0.00;0.00;0.62;0.00;0.00;0.62;5.10;4.60;;;23.60;23.30;;;;;;2263199;61;20353;-65
2024/03/20 06:55:32;0.00;0.00;0.62;0.00;0.00;0.62;5.93;4.50;;;23.60;23.30;;;;;;2263136;61;20369;-65
2024/03/20 06:57:58;0.00;0.00;0.62;0.00;0.00;0.62;5.83;5.00;;;23.60;23.30;;;;;;2263111;61;20353;-65
2024/03/20 07:00:25;0.00;0.00;0.62;0.00;0.00;0.62;6.30;5.03;;;23.50;23.30;;;;;;2263028;61;20375;-64
2024/03/20 07:02:53;0.00;0.00;0.62;0.00;0.00;0.62;6.47;5.10;;;23.60;23.30;;;;;;2263179;61;20448;-64
2024/03/20 07:05:19;0.00;0.00;0.62;0.00;0.00;0.62;5.90;5.23;;;23.60;23.30;;;;;;2263064;61;20395;-65
2024/03/20 07:07:46;0.00;0.00;0.62;0.00;0.00;0.62;6.43;5.63;;;23.60;23.30;;;;;;2263014;61;20356;-64
2024/03/20 07:10:12;0.00;0.00;0.62;0.00;0.00;0.62;7.90;5.53;;;23.60;23.30;;;;;;2263367;61;20352;-65
2024/03/20 07:12:40;0.00;0.00;0.62;0.00;0.00;0.62;7.77;5.30;;;23.60;23.30;;;;;;2263163;61;20407;-65
2024/03/20 07:15:08;0.00;0.00;0.62;0.00;0.00;0.62;8.70;5.43;;;23.60;23.30;;;;;;2263003;61;20891;-65
2024/03/20 07:17:36;0.00;0.00;0.62;0.00;0.00;0.62;5.80;5.03;;;23.60;23.30;;;;;;2263018;61;20395;-65
2024/03/20 07:20:06;0.00;0.00;0.62;0.00;0.00;0.62;9.03;6.70;;;23.60;23.30;;;;;;2263197;61;20889;-65
2024/03/20 07:22:32;0.00;0.00;0.62;0.00;0.00;0.62;8.43;6.60;;;23.60;23.30;;;;;;2263062;61;20357;-65
2024/03/20 07:24:59;0.00;0.00;0.62;0.00;0.00;0.62;8.50;6.20;;;23.60;23.30;;;;;;2263115;61;20363;-65
2024/03/20 07:27:25;0.00;0.00;0.62;0.00;0.00;0.62;7.77;6.70;;;23.60;23.30;;;;;;2262983;61;20408;-65
2024/03/20 07:29:52;0.00;0.00;0.62;0.00;0.00;0.62;7.30;6.60;;;23.60;23.40;;;;;;2263006;61;20875;-65
2024/03/20 07:32:18;0.00;0.00;0.62;0.00;0.00;0.62;11.40;6.30;;;23.60;23.40;;;;;;2262777;61;20501;-66
2024/03/20 07:34:45;0.00;0.00;0.62;0.00;0.00;0.62;9.63;7.60;;;23.60;23.30;;;;;;2263183;61;20356;-65
2024/03/20 07:37:11;0.00;0.00;0.62;0.00;0.00;0.62;9.17;7.00;;;23.60;23.40;;;;;;2262826;61;20379;-63
2024/03/20 07:39:39;0.00;0.00;0.62;0.00;0.00;0.62;7.87;6.80;;;23.60;23.40;;;;;;2263088;61;20940;-65
2024/03/20 07:42:06;0.00;0.00;0.62;0.00;0.00;0.62;9.60;6.77;;;23.60;23.40;;;;;;2263040;61;20435;-65
2024/03/20 07:44:32;0.00;0.00;0.62;0.00;0.00;0.62;8.50;6.87;;;23.60;23.40;;;;;;2259016;61;20353;-65
2024/03/20 07:47:00;0.00;0.00;0.62;0.00;0.00;0.62;6.53;5.93;;;23.60;23.40;;;;;;2263049;61;20438;-64
2024/03/20 07:49:27;0.00;0.00;0.62;0.00;0.00;0.62;8.30;7.10;;;23.60;23.40;;;;;;2263141;61;20361;-65
2024/03/20 07:51:55;0.00;0.00;0.62;0.00;0.00;0.62;8.40;6.80;;;23.60;23.40;;;;;;2262825;61;20448;-65
2024/03/20 07:54:24;0.00;0.00;0.62;0.00;0.00;0.62;9.10;6.77;;;23.60;23.40;;;;;;2262961;61;20770;-65
2024/03/20 07:56:51;0.00;0.00;0.62;0.00;0.00;0.62;7.77;6.97;;;23.60;23.40;;;;;;2263076;61;20400;-65
2024/03/20 07:59:18;0.00;0.00;0.62;0.00;0.00;0.62;10.73;7.37;;;23.60;23.40;;;;;;2262726;61;20388;-65
2024/03/20 08:01:45;0.00;0.00;0.62;0.00;0.00;0.62;8.77;7.80;;;23.60;23.40;;;;;;2262461;61;20369;-65
2024/03/20 08:04:13;0.00;0.00;0.62;0.00;0.00;0.62;7.97;6.27;;;23.60;23.40;;;;;;2263053;61;20360;-65
2024/03/20 08:06:40;0.00;0.00;0.62;0.00;0.00;0.62;7.83;6.93;;;23.60;23.40;;;;;;2262816;61;20373;-63
2024/03/20 08:09:06;0.00;0.00;0.62;0.00;0.00;0.62;8.20;6.83;;;23.60;23.40;;;;;;2262705;61;20388;-62
2024/03/20 08:11:33;0.00;0.00;0.62;0.00;0.00;0.62;7.10;6.17;;;23.60;23.50;;;;;;2259029;61;20338;-65
2024/03/20 08:14:07;0.00;0.00;0.62;0.00;0.00;0.62;8.23;7.37;;;23.60;23.50;;;;;;2262582;61;20418;-64
2024/03/20 08:16:34;0.00;0.00;0.62;0.00;0.00;0.62;8.20;6.50;;;23.60;23.50;;;;;;2263040;61;20372;-64
2024/03/20 08:19:01;0.00;0.00;0.62;0.00;0.00;0.62;7.50;6.07;;;23.60;23.50;;;;;;2262875;61;20516;-65
2024/03/20 08:21:29;0.00;0.00;0.62;0.00;0.00;0.62;7.90;6.70;;;23.60;23.50;;;;;;2262626;61;20381;-65
2024/03/20 08:23:56;0.00;0.00;0.62;0.00;0.00;0.62;8.40;6.00;;;23.60;23.50;;;;;;2263096;61;20360;-65
2024/03/20 08:26:22;0.00;0.00;0.62;0.00;0.00;0.62;6.50;5.90;;;23.60;23.50;;;;;;2262704;61;20433;-65
2024/03/20 08:28:49;0.00;0.00;0.62;0.00;0.00;0.62;7.33;5.73;;;23.60;23.50;;;;;;2262685;61;20411;-65
2024/03/20 08:31:15;0.00;0.00;0.62;0.00;0.00;0.62;8.37;6.37;;;23.60;23.50;;;;;;2262709;61;20357;-65
2024/03/20 08:33:41;0.00;0.00;0.62;0.00;0.00;0.62;6.57;5.50;;;23.60;23.50;;;;;;2259002;61;20388;-64
2024/03/20 08:36:10;0.00;0.00;0.62;0.00;0.00;0.62;7.97;6.60;;;23.60;23.60;;;;;;2262784;61;20374;-65
2024/03/20 08:38:37;0.00;0.00;0.62;0.00;0.00;0.62;5.80;5.20;;;23.60;23.60;;;;;;2262780;61;20356;-65
2024/03/20 08:41:04;0.00;0.00;0.62;0.00;0.00;0.62;7.63;6.13;;;23.60;23.50;;;;;;2262622;61;20369;-65
2024/03/20 08:43:33;0.00;0.00;0.62;0.00;0.00;0.62;5.10;4.57;;;23.60;23.60;;;;;;2262687;61;20349;-65
2024/03/20 08:46:00;0.00;0.00;0.62;0.00;0.00;0.62;6.87;5.13;;;23.60;23.60;;;;;;2262906;61;20420;-64
2024/03/20 08:48:28;0.00;0.00;0.62;0.00;0.00;0.62;6.00;5.07;;;23.60;23.60;;;;;;2262877;61;20461;-65
2024/03/20 08:50:54;0.00;0.00;0.62;0.00;0.00;0.62;6.60;5.20;;;23.60;23.60;;;;;;2262551;61;20349;-65
2024/03/20 08:53:21;0.00;0.00;0.62;0.00;0.00;0.62;6.30;5.37;;;23.60;23.60;;;;;;2262932;61;20804;-65
2024/03/20 08:55:48;0.00;0.00;0.62;0.00;0.00;0.62;8.10;5.53;;;23.60;23.60;;;;;;2262529;61;20783;-65
2024/03/20 08:58:15;0.00;0.00;0.62;0.00;0.00;0.62;6.40;5.70;;;23.60;23.60;;;;;;2262549;61;20388;-65
2024/03/20 09:00:41;0.00;0.00;0.62;0.00;0.00;0.62;6.30;5.20;;;23.70;23.70;;;;;;2258705;61;20381;-65
2024/03/20 09:03:07;0.00;0.00;0.62;0.00;0.00;0.62;5.90;4.90;;;23.70;23.70;;;;;;2262554;61;20369;-65
2024/03/20 09:05:35;0.00;0.00;0.62;0.00;0.00;0.62;6.20;5.43;;;23.60;23.60;;;;;;2262309;61;20377;-65
2024/03/20 09:08:01;0.00;0.00;0.62;0.00;0.00;0.62;6.57;5.60;;;23.70;23.70;;;;;;2262809;61;20357;-65
2024/03/20 09:10:27;0.00;0.00;0.62;0.00;0.00;0.62;6.53;5.37;;;23.70;23.70;;;;;;2262704;61;20341;-65
2024/03/20 09:12:55;0.00;0.00;0.62;0.00;0.00;0.62;5.87;4.90;;;23.70;23.70;;;;;;2258840;61;20436;-65
2024/03/20 09:15:21;0.00;0.00;0.62;0.00;0.00;0.62;5.83;5.23;;;23.70;23.70;;;;;;2262639;61;20376;-65
2024/03/20 09:17:49;0.00;0.00;0.62;0.00;0.00;0.62;6.47;4.50;;;23.70;23.70;;;;;;2262756;61;20384;-65
2024/03/20 09:20:16;0.00;0.00;0.62;0.00;0.00;0.62;6.33;5.03;;;23.70;23.70;;;;;;2262600;61;20364;-64
2024/03/20 09:22:43;0.00;0.00;0.62;0.00;0.00;0.62;5.83;4.87;;;23.70;23.70;;;;;;2262614;61;20349;-64
2024/03/20 09:25:09;0.00;0.00;0.62;0.00;0.00;0.62;5.87;4.43;;;23.70;23.70;;;;;;2262780;61;20384;-65
2024/03/20 09:27:36;0.00;0.00;0.62;0.00;0.00;0.62;5.80;5.10;;;23.70;23.80;;;;;;2262354;61;20392;-65
2024/03/20 09:30:04;0.00;0.00;0.62;0.00;0.00;0.62;4.80;4.30;;;23.70;23.80;;;;;;2262732;61;20371;-63
2024/03/20 09:32:31;0.00;0.00;0.62;0.00;0.00;0.62;4.57;4.17;;;23.70;23.80;;;;;;2263055;61;20471;-65
2024/03/20 09:34:58;0.00;0.00;0.62;0.00;0.00;0.62;5.50;4.70;;;23.70;23.80;;;;;;2262244;61;20757;-65
2024/03/20 09:37:26;0.00;0.00;0.62;0.00;0.00;0.62;5.20;4.23;;;23.70;23.80;;;;;;2262636;61;20576;-65
2024/03/20 09:39:52;0.00;0.00;0.62;0.00;0.00;0.62;6.67;4.37;;;23.80;23.90;;;;;;2262876;61;20369;-64